Latest Weather Observations for Maroochydore

IDQ60901

Issued at 2:51 am EST Sunday 20 August 2017 (issued every 10 minutes, with the page automatically refreshed every 10 minutes)

About weather observations | Map of Brisbane area stations | Latest observations for Brisbane area | Other Formats
Station Details ID: 040861 Name: SUNSHINE COAST AIRPORT Lat: -26.60 Lon: 153.09 Height: 3.3 m
Data from the previous 72 hours. | See also: Recent months at Maroochydore
Date/Time
EST
Temp
°C
App
Temp
°C
Dew
Point
°C
Rel
Hum
%
Delta-T
°C
Wind Press
QNH
hPa
Press
MSL
hPa
Rain since
9am
mm
Dir  Spd
km/h
Gust
km/h
Spd
kts
Gust
kts
20/02:30am 10.9 5.5 -4.7 33 5.7 SW 15 20 8 11 1017.2 - 0.0
20/02:00am 11.5 5.1 -5.0 31 6.0 SW 20 24 11 13 1017.0 - 0.0
20/01:30am 11.4 5.6 -5.1 31 6.0 SW 17 24 9 13 1017.2 - 0.0
20/01:00am 11.7 5.5 -5.3 30 6.1 SW 19 24 10 13 1017.4 - 0.0
20/12:30am 11.8 5.3 -5.6 29 6.3 SW 20 26 11 14 1017.5 - 0.0
20/12:00am 12.0 5.8 -5.0 30 6.2 SW 19 28 10 15 1017.7 1017.7 0.0
 
Date/Time
EST
Temp
°C
App
Temp
°C
Dew
Point
°C
Rel
Hum
%
Delta-T
°C
Wind Press
QNH
hPa
Press
MSL
hPa
Rain since
9am
mm
Dir  Spd
km/h
Gust
km/h
Spd
kts
Gust
kts
19/11:30pm 12.3 6.4 -5.7 28 6.5 WSW 17 30 9 16 1017.9 - 0.0
19/11:00pm 12.0 6.1 -5.5 29 6.3 WSW 17 26 9 14 1018.1 - 0.0
19/10:30pm 13.0 6.7 -6.0 26 6.9 WSW 19 26 10 14 1018.1 - 0.0
19/10:00pm 13.3 7.0 -6.3 25 7.1 WSW 19 26 10 14 1018.2 - 0.0
19/09:30pm 13.8 7.3 -5.9 25 7.2 WSW 20 26 11 14 1018.0 - 0.0
19/09:00pm 13.7 7.8 -5.9 25 7.1 WSW 17 26 9 14 1018.0 1018.0 0.0
19/08:30pm 13.8 8.2 -6.4 24 7.3 WSW 15 20 8 11 1017.8 - 0.0
19/08:00pm 14.4 8.4 -7.0 22 7.7 SW 17 28 9 15 1017.6 - 0.0
19/07:30pm 14.3 7.9 -6.5 23 7.6 WSW 19 26 10 14 1017.0 - 0.0
19/07:00pm 14.8 8.8 -6.7 22 7.8 WSW 17 24 9 13 1016.7 - 0.0
19/06:30pm 15.1 8.8 -5.9 23 7.8 WSW 19 26 10 14 1016.3 - 0.0
19/06:00pm 15.6 9.3 -6.0 22 8.0 SW 19 26 10 14 1016.0 1016.0 0.0
19/05:30pm 16.8 8.7 -6.9 19 8.8 SW 28 39 15 21 1015.3 - 0.0
19/05:01pm 17.9 8.7 -8.2 16 9.5 WSW 33 52 18 28 1014.6 - 0.0
19/05:00pm 17.9 8.3 -8.2 16 9.5 WSW 35 52 19 28 1014.6 - 0.0
19/04:30pm 18.8 9.7 -7.5 16 9.8 WSW 33 52 18 28 1014.2 - 0.0
19/04:00pm 19.3 9.4 -7.9 15 10.2 SW 37 56 20 30 1013.7 - 0.0
19/03:44pm 19.8 10.9 -7.5 15 10.3 SW 32 50 17 27 1013.6 - 0.0
19/03:30pm 19.8 10.2 -8.4 14 10.5 SW 35 50 19 27 1013.4 - 0.0
19/03:06pm 19.9 10.8 -7.5 15 10.4 WSW 33 57 18 31 1013.1 - 0.0
19/03:00pm 20.1 10.7 -6.5 16 10.3 WSW 35 50 19 27 1013.1 1013.1 0.0
19/02:34pm 20.4 11.1 -5.4 17 10.3 WSW 35 54 19 29 1013.3 - 0.0
19/02:30pm 20.0 10.2 -6.6 16 10.3 WSW 37 54 20 29 1013.2 - 0.0
19/02:26pm 19.9 10.5 -6.6 16 10.2 WSW 35 54 19 29 1013.2 - 0.0
19/02:00pm 20.1 10.9 -8.2 14 10.6 SW 33 48 18 26 1013.6 - 0.0
19/01:32pm 20.5 12.3 -7.9 14 10.7 SW 28 46 15 25 1013.8 - 0.0
19/01:30pm 21.1 13.4 -6.5 15 10.8 SW 26 39 14 21 1013.9 - 0.0
19/01:21pm 20.3 11.8 -7.1 15 10.5 WSW 30 48 16 26 1013.9 - 0.0
19/01:00pm 20.1 11.1 -8.2 14 10.6 SW 32 44 17 24 1014.1 - 0.0
19/12:30pm 20.4 13.2 -5.4 17 10.3 WSW 24 43 13 23 1014.3 - 0.0
19/12:00pm 19.9 11.7 -4.4 19 9.8 WSW 30 48 16 26 1014.8 1014.8 0.0
19/11:55am 19.8 11.5 -5.2 18 9.9 WSW 30 48 16 26 1014.9 - 0.0
19/11:30am 19.7 12.6 -4.5 19 9.7 WSW 24 35 13 19 1015.4 - 0.0
19/11:04am 18.8 10.0 -6.0 18 9.6 SW 32 52 17 28 1015.7 - 0.0
19/11:00am 18.9 10.5 -5.9 18 9.6 SW 30 46 16 25 1015.8 - 0.0
19/10:30am 18.5 10.1 -5.5 19 9.3 SW 30 48 16 26 1016.0 - 0.0
19/10:15am 17.8 8.5 -5.4 20 9.0 SW 35 56 19 30 1016.1 - 0.0
19/10:00am 17.7 8.5 -4.9 21 8.8 SW 35 50 19 27 1016.5 - 0.0
19/09:49am 17.3 8.4 -5.2 21 8.7 SW 33 59 18 32 1016.6 - 0.0
19/09:30am 17.2 8.9 -5.3 21 8.7 SW 30 44 16 24 1016.9 - 0.0
19/09:00am 16.8 9.4 -3.9 24 8.2 SW 26 44 14 24 1017.3 1017.3 0.0
19/08:30am 15.8 7.9 -4.7 24 7.9 SW 28 41 15 22 1017.4 - 0.0
19/08:00am 15.5 7.7 -3.9 26 7.6 SW 28 41 15 22 1017.5 - 0.0
19/07:30am 14.8 7.4 -4.0 27 7.3 SW 26 46 14 25 1017.3 - 0.0
19/07:00am 14.1 7.4 -4.6 27 7.1 SW 22 41 12 22 1017.0 - 0.0
19/06:30am 13.9 7.1 -4.8 27 7.0 SW 22 39 12 21 1016.8 - 0.0
19/06:00am 13.8 7.7 -3.9 29 6.8 SW 19 32 10 17 1016.6 1016.6 0.0
19/05:30am 13.8 8.1 -3.9 29 6.8 SW 17 30 9 16 1016.3 - 0.0
19/05:00am 14.2 8.1 -3.6 29 6.9 SW 19 30 10 16 1016.1 - 0.0
19/04:30am 13.7 8.4 -3.5 30 6.6 SW 15 24 8 13 1016.0 - 0.0
19/04:00am 13.7 8.8 -3.5 30 6.6 WSW 13 24 7 13 1015.9 - 0.0
19/03:30am 13.9 8.2 -3.8 29 6.8 WSW 17 28 9 15 1015.7 - 0.0
19/03:00am 15.3 8.7 -3.6 27 7.4 SW 22 33 12 18 1015.7 1015.7 0.0
19/02:30am 15.4 8.8 -3.5 27 7.4 SW 22 33 12 18 1015.9 - 0.0
19/02:00am 15.8 9.2 -3.6 26 7.6 SW 22 30 12 16 1016.1 - 0.0
19/01:30am 16.4 9.3 -4.2 24 8.1 SW 24 35 13 19 1016.0 - 0.0
19/01:00am 17.0 9.5 -4.3 23 8.4 WSW 26 43 14 23 1015.8 - 0.0
19/12:30am 17.2 9.7 -4.7 22 8.5 WSW 26 32 14 17 1015.9 - 0.0
19/12:00am 17.4 10.2 -5.1 21 8.7 WSW 24 39 13 21 1016.1 1016.1 0.0
 
Date/Time
EST
Temp
°C
App
Temp
°C
Dew
Point
°C
Rel
Hum
%
Delta-T
°C
Wind Press
QNH
hPa
Press
MSL
hPa
Rain since
9am
mm
Dir  Spd
km/h
Gust
km/h
Spd
kts
Gust
kts
18/11:30pm 16.7 10.4 -3.9 24 8.1 WSW 20 28 11 15 1016.2 - 0.0
18/11:00pm 15.5 10.4 -5.0 24 7.8 SW 13 17 7 9 1016.2 - 0.0
18/10:30pm 17.0 11.5 -5.5 21 8.6 W 15 19 8 10 1016.1 - 0.0
18/10:00pm 17.2 11.3 -5.3 21 8.7 W 17 20 9 11 1016.0 - 0.0
18/09:30pm 17.4 11.6 -5.1 21 8.7 W 17 20 9 11 1015.9 - 0.0
18/09:00pm 17.1 11.7 -4.8 22 8.5 W 15 20 8 11 1015.8 1015.8 0.0
18/08:30pm 16.0 11.4 -4.0 25 7.8 W 11 13 6 7 1015.5 - 0.0
18/08:00pm 17.1 12.0 -4.8 22 8.5 W 13 15 7 8 1015.3 - 0.0
18/07:30pm 18.3 13.5 -6.4 18 9.4 WSW 11 13 6 7 1015.0 - 0.0
18/07:00pm 20.8 14.7 -7.6 14 10.8 WSW 17 22 9 12 1014.7 - 0.0
18/06:30pm 20.9 14.7 -8.5 13 11.0 WSW 17 24 9 13 1014.2 - 0.0
18/06:00pm 22.2 15.1 -8.5 12 11.7 WSW 22 32 12 17 1013.6 1013.6 0.0
18/05:30pm 22.6 15.9 -8.2 12 11.8 WSW 20 30 11 16 1013.0 - 0.0
18/05:00pm 24.2 17.8 -7.0 12 12.5 WSW 19 28 10 15 1012.5 - 0.0
18/04:30pm 25.5 18.1 -7.1 11 13.2 WSW 24 39 13 21 1011.9 - 0.0
18/04:00pm 26.1 18.2 -9.2 9 13.8 WSW 26 50 14 27 1011.6 - 0.0
18/03:30pm 26.7 19.3 -7.4 10 13.9 WSW 24 35 13 19 1011.3 - 0.0
18/03:00pm 27.4 20.9 -5.6 11 14.0 W 20 30 11 16 1011.3 1011.3 0.0
18/02:30pm 27.4 20.3 -4.5 12 13.8 WSW 24 35 13 19 1011.4 - 0.0
18/02:00pm 27.4 20.2 -5.6 11 14.0 WSW 24 32 13 17 1011.5 - 0.0
18/01:30pm 27.1 19.7 -3.7 13 13.5 WSW 26 35 14 19 1011.9 - 0.0
18/01:00pm 26.8 19.4 -3.9 13 13.3 WSW 26 35 14 19 1012.1 - 0.0
18/12:30pm 26.8 19.4 -3.9 13 13.3 WSW 26 44 14 24 1012.7 - 0.0
18/12:00pm 26.4 19.4 -3.2 14 13.0 SW 24 37 13 20 1013.3 1013.3 0.0
18/11:30am 25.4 17.7 -3.1 15 12.4 SW 28 43 15 23 1013.9 - 0.0
18/11:00am 24.7 16.4 -4.6 14 12.3 SW 30 44 16 24 1014.6 - 0.0
18/10:48am 24.7 16.9 -3.6 15 12.1 W 28 50 15 27 1014.7 - 0.0
18/10:30am 24.1 15.4 -5.0 14 12.1 SW 32 48 17 26 1014.9 - 0.0
18/10:01am 23.8 15.9 -4.4 15 11.8 SW 28 46 15 25 1015.2 - 0.0
18/10:00am 24.0 16.2 -4.2 15 11.9 SW 28 44 15 24 1015.2 - 0.0
18/09:39am 23.6 15.5 -2.8 17 11.4 SW 30 48 16 26 1015.5 - 0.0
18/09:30am 23.4 15.3 -3.0 17 11.3 SW 30 44 16 24 1015.6 - 0.0
18/09:00am 22.9 16.8 -2.6 18 11.0 SW 20 39 11 21 1015.6 1015.6 0.0
18/08:30am 22.1 17.7 0.6 24 9.8 SW 13 20 7 11 1015.6 - 0.0
18/08:00am 20.3 18.0 5.5 38 7.3 N 7 9 4 5 1015.4 - 0.0
18/07:30am 17.6 15.1 8.2 54 4.8 N 11 13 6 7 1015.2 - 0.0
18/07:00am 15.3 12.6 5.8 53 4.5 NNE 9 11 5 6 1014.9 - 0.0
18/06:30am 14.3 12.2 4.0 50 4.7 NW 4 6 2 3 1014.6 - 0.0
18/06:00am 14.9 12.0 4.6 50 4.8 W 9 11 5 6 1014.1 1014.1 0.0
18/05:30am 12.8 10.7 6.8 67 2.9 NW 7 9 4 5 1013.7 - 0.0
18/05:00am 11.3 8.8 8.0 80 1.6 N 11 13 6 7 1013.4 - 0.0
18/04:30am 12.3 10.5 9.5 83 1.4 N 9 11 5 6 1013.2 - 0.0
18/04:00am 13.0 11.3 9.8 81 1.6 N 9 13 5 7 1012.8 - 0.0
18/03:31am 13.0 12.5 12.2 95 0.4 NW 6 9 3 5 1012.6 - 0.0
18/03:30am 12.8 12.3 12.0 95 0.4 NW 6 9 3 5 1012.6 - 0.0
18/03:00am 12.7 13.3 11.8 94 0.5 CALM 0 0 0 0 1012.5 1012.5 0.0
18/02:30am 13.2 13.9 12.3 94 0.5 CALM 0 0 0 0 1012.4 - 0.0
18/02:10am 13.5 13.9 12.6 94 0.5 WNW 2 6 1 3 1012.4 - 0.0
18/02:00am 13.4 13.7 12.3 93 0.6 WNW 2 6 1 3 1012.4 - 0.0
18/01:55am 13.1 12.9 11.8 92 0.7 WNW 4 6 2 3 1012.4 - 0.0
18/01:30am 13.6 13.1 12.0 90 0.9 WNW 6 7 3 4 1012.4 - 0.0
18/01:14am 15.3 15.4 14.0 92 0.7 WSW 6 7 3 4 1012.4 - 0.0
18/01:00am 16.1 16.6 15.0 93 0.6 W 6 7 3 4 1012.6 - 0.0
18/12:30am 16.5 16.5 15.2 92 0.8 W 9 13 5 7 1012.7 - 0.0
18/12:00am 17.3 17.3 16.2 93 0.7 WNW 11 13 6 7 1012.6 1012.6 0.0
 
Date/Time
EST
Temp
°C
App
Temp
°C
Dew
Point
°C
Rel
Hum
%
Delta-T
°C
Wind Press
QNH
hPa
Press
MSL
hPa
Rain since
9am
mm
Dir  Spd
km/h
Gust
km/h
Spd
kts
Gust
kts
17/11:30pm 17.4 17.4 16.3 93 0.7 WNW 11 13 6 7 1012.6 - 0.0
17/11:00pm 18.4 18.7 17.1 92 0.8 NW 11 15 6 8 1012.5 - 0.0
17/10:30pm 17.9 18.0 16.4 91 0.9 WNW 11 13 6 7 1012.5 - 0.0
17/10:00pm 18.9 19.2 16.9 88 1.2 WNW 11 13 6 7 1012.4 - 0.0
17/09:30pm 19.5 19.9 17.3 87 1.3 NW 11 15 6 8 1012.2 - 0.0
17/09:00pm 18.5 19.1 16.8 90 1.0 NNW 9 13 5 7 1012.2 1012.2 0.0
17/08:30pm 18.9 19.9 15.4 80 2.1 NW 4 11 2 6 1012.1 - 0.0
17/08:00pm 21.3 22.1 17.3 78 2.5 W 9 15 5 8 1011.7 - 0.0
17/07:30pm 21.9 21.7 17.7 77 2.6 NNW 15 20 8 11 1010.9 - 0.0
17/07:00pm 22.6 22.1 17.7 74 3.0 NNW 17 22 9 12 1010.4 - 0.0
17/06:30pm 23.8 22.7 17.8 69 3.7 NNW 20 30 11 16 1009.7 - 0.0
17/06:00pm 24.1 23.0 17.8 68 3.9 N 20 28 11 15 1009.3 1009.3 0.0
17/05:30pm 23.9 22.9 17.9 69 3.8 N 20 28 11 15 1008.9 - 0.0
17/05:00pm 24.1 23.2 18.3 70 3.7 N 20 33 11 18 1008.5 - 0.0
17/04:30pm 25.6 23.6 17.5 61 5.1 N 24 32 13 17 1008.1 - 0.0
17/04:00pm 26.6 23.5 16.5 54 6.2 NNE 28 35 15 19 1007.8 - 0.0
17/03:30pm 31.2 28.9 13.0 33 10.8 N 17 24 9 13 1007.6 - 0.0
17/03:00pm 30.6 28.6 13.8 35 10.1 N 17 26 9 14 1007.7 1007.7 0.0
17/02:30pm 31.4 27.9 10.2 27 12.1 NW 19 30 10 16 1007.9 - 0.0
17/02:00pm 32.2 29.6 11.9 29 11.9 NW 17 28 9 15 1008.2 - 0.0
17/01:30pm 31.2 28.3 11.1 29 11.6 NW 17 32 9 17 1008.7 - 0.0
17/01:00pm 30.3 27.8 12.2 33 10.6 W 17 24 9 13 1009.2 - 0.0
17/12:30pm 29.5 26.7 13.3 37 9.6 NW 20 28 11 15 1009.7 - 0.0
17/12:00pm 28.8 26.8 13.9 40 8.9 NW 17 22 9 12 1010.2 1010.2 0.0
17/11:30am 28.0 25.8 14.3 43 8.2 NW 19 26 10 14 1010.9 - 0.0
17/11:00am 26.8 25.1 15.8 51 6.7 NW 19 28 10 15 1011.6 - 0.0
17/10:30am 25.7 24.0 15.7 54 6.1 NW 19 24 10 13 1012.1 - 0.0
17/10:00am 24.0 22.4 16.0 61 4.9 NW 19 30 10 16 1012.8 - 0.0
17/09:30am 23.1 21.8 15.9 64 4.3 NW 17 24 9 13 1013.0 - 0.0
17/09:00am 22.3 21.3 16.6 70 3.5 NW 17 20 9 11 1013.2 1013.2 0.0
17/08:30am 21.1 20.1 16.5 75 2.8 WNW 17 24 9 13 1013.1 - 0.0
17/08:00am 20.1 19.5 16.7 81 2.1 NW 15 26 8 14 1012.8 - 0.0
17/07:30am 19.0 18.1 16.8 87 1.3 NNW 17 24 9 13 1012.6 - 0.0
17/07:00am 18.1 17.0 16.4 90 1.0 NNW 17 26 9 14 1012.4 - 0.0
17/06:30am 17.4 15.9 16.3 93 0.7 NNW 19 24 10 13 1012.1 - 0.0
17/06:00am 17.5 16.0 16.2 92 0.8 NW 19 26 10 14 1012.0 1012.0 0.0
17/05:30am 17.5 15.8 16.2 92 0.8 NW 20 28 11 15 1011.5 - 0.0
17/05:00am 17.6 16.1 16.3 92 0.8 NNW 19 26 10 14 1011.3 - 0.0
17/04:30am 17.9 15.9 16.4 91 0.9 NNW 22 32 12 17 1011.2 - 0.0
17/04:00am 17.9 16.3 16.4 91 0.9 NW 20 33 11 18 1011.0 - 0.0
17/03:30am 18.0 16.0 16.5 91 0.9 NW 22 32 12 17 1011.0 - 0.0
17/03:00am 17.9 16.3 16.4 91 0.9 NW 20 30 11 16 1011.1 1011.1 0.0

Latest Capital City Observations: Canberra | Sydney | Melbourne | Brisbane | Adelaide | Perth | Hobart | Darwin

Other Formats:

Comma delimited format used in spreadsheet applications
http://www.bom.gov.au/fwo/IDQ60901/IDQ60901.94569.axf

JavaScript Object Notation format (JSON) in row-major order
http://www.bom.gov.au/fwo/IDQ60901/IDQ60901.94569.json